PWSweather.com
Personal Weather Stations
Station Observations
W7JKG
Phoenix, AZ 85032-2083

Phoenix, AZ 85032-2083

Lat: 33.645544, Lon: -112.007099

Elevation: 1474

Station Type: Davis Vantage Pro2 Wireless

http://tiggrweather.net/

High Low Average
Temperature 96.5°F35.8°C 61.9°F16.6°C 80.7°F27.1°C
Dew Point 32.8°F0.4°C 2.5°F-16.4°C 19.3°F-7.1°C
Winds 4.6 mph 7.4 kmh Calm Calm 2.0 mph SW3.2 kmh SW
Wind Gusts 10.4 mph16.7 kmh -- 3.0 mph4.8 kmh
Humidity 30% 3% 13%
Pressure 29.98 in1015.2 mb 29.83 in1010.2 mb -
Precipitation 0.00 in0.0 mm - -
Hour Temp Dew Point Humidity Winds Wind Gusts Pressure Precip Precip Rate Daily Precip Total
12:00 AM 70.5°F21.4°C 24.9°F-3.9°C 18% Calm Calm -- 29.86 in1011.2 mb - 0.00 in0.0 mm 0.00 in0.0 mm
01:00 AM 68.1°F20.1°C 25.5°F-3.6°C 20% 1.2 mph NW1.9 kmh NW 2.3 mph3.7 kmh 29.87 in1011.5 mb - 0.00 in0.0 mm 0.00 in0.0 mm
02:00 AM 65.6°F18.7°C 27.8°F-2.3°C 24% Calm Calm -- 29.86 in1011.2 mb - 0.00 in0.0 mm 0.00 in0.0 mm
03:00 AM 63.3°F17.4°C 26.8°F-2.9°C 25% Calm Calm -- 29.86 in1011.2 mb - 0.00 in0.0 mm 0.00 in0.0 mm
04:00 AM 62.6°F17.0°C 25.3°F-3.7°C 24% Calm Calm -- 29.88 in1011.9 mb - 0.00 in0.0 mm 0.00 in0.0 mm
05:00 AM 61.9°F16.6°C 30.1°F-1.1°C 30% Calm Calm 1.2 mph1.9 kmh 29.89 in1012.2 mb - 0.00 in0.0 mm 0.00 in0.0 mm
06:00 AM 63.8°F17.7°C 27.3°F-2.6°C 25% Calm Calm 2.3 mph3.7 kmh 29.92 in1013.2 mb - 0.00 in0.0 mm 0.00 in0.0 mm
07:00 AM 68.4°F20.2°C 28.1°F-2.2°C 22% 2.3 mph E3.7 kmh E 2.3 mph3.7 kmh 29.94 in1013.9 mb - 0.00 in0.0 mm 0.00 in0.0 mm
08:00 AM 76.0°F24.4°C 26.5°F-3.1°C 16% 3.5 mph SE5.6 kmh SE 4.6 mph7.4 kmh 29.96 in1014.6 mb - 0.00 in0.0 mm 0.00 in0.0 mm
09:00 AM 81.3°F27.4°C 23.8°F-4.6°C 12% 2.3 mph SSE3.7 kmh SSE 5.8 mph9.3 kmh 29.97 in1014.9 mb - 0.00 in0.0 mm 0.00 in0.0 mm
10:00 AM 85.6°F29.8°C 22.8°F-5.1°C 10% 1.2 mph SE1.9 kmh SE 3.5 mph5.6 kmh 29.98 in1015.2 mb - 0.00 in0.0 mm 0.00 in0.0 mm
11:00 AM 89.3°F31.8°C 20.3°F-6.5°C 8% 3.5 mph SSW5.6 kmh SSW 6.9 mph11.1 kmh 29.97 in1014.9 mb - 0.00 in0.0 mm 0.00 in0.0 mm
12:00 PM 93.2°F34.0°C 16.4°F-8.7°C 6% 1.2 mph S1.9 kmh S 4.6 mph7.4 kmh 29.94 in1013.9 mb - 0.00 in0.0 mm 0.00 in0.0 mm
01:00 PM 93.9°F34.4°C 12.7°F-10.7°C 5% 4.6 mph WSW7.4 kmh WSW 8.1 mph13.0 kmh 29.92 in1013.2 mb - 0.00 in0.0 mm 0.00 in0.0 mm
02:00 PM 95.4°F35.2°C 8.7°F-12.9°C 4% 4.6 mph WSW7.4 kmh WSW 10.4 mph16.7 kmh 29.90 in1012.5 mb - 0.00 in0.0 mm 0.00 in0.0 mm
03:00 PM 95.5°F35.3°C 2.5°F-16.4°C 3% 2.3 mph NW3.7 kmh NW 3.5 mph5.6 kmh 29.87 in1011.5 mb - 0.00 in0.0 mm 0.00 in0.0 mm
04:00 PM 96.5°F35.8°C 3.2°F-16.0°C 3% 4.6 mph SW7.4 kmh SW 6.9 mph11.1 kmh 29.84 in1010.5 mb - 0.00 in0.0 mm 0.00 in0.0 mm
05:00 PM 95.9°F35.5°C 2.8°F-16.2°C 3% 3.5 mph SW5.6 kmh SW 4.6 mph7.4 kmh 29.84 in1010.5 mb - 0.00 in0.0 mm 0.00 in0.0 mm
06:00 PM 94.3°F34.6°C 8.0°F-13.3°C 4% 3.5 mph SW5.6 kmh SW 6.9 mph11.1 kmh 29.83 in1010.2 mb - 0.00 in0.0 mm 0.00 in0.0 mm
07:00 PM 91.1°F32.8°C 5.8°F-14.6°C 4% 2.3 mph WSW3.7 kmh WSW 3.5 mph5.6 kmh 29.83 in1010.2 mb - 0.00 in0.0 mm 0.00 in0.0 mm
08:00 PM 87.8°F31.0°C 12.5°F-10.8°C 6% Calm Calm -- 29.84 in1010.5 mb - 0.00 in0.0 mm 0.00 in0.0 mm
09:00 PM 83.1°F28.4°C 23.1°F-4.9°C 11% Calm Calm -- 29.86 in1011.2 mb - 0.00 in0.0 mm 0.00 in0.0 mm
10:00 PM 79.0°F26.1°C 25.7°F-3.5°C 14% Calm Calm -- 29.87 in1011.5 mb - 0.00 in0.0 mm 0.00 in0.0 mm
11:00 PM 75.5°F24.2°C 32.8°F0.4°C 21% Calm Calm -- 29.88 in1011.9 mb - 0.00 in0.0 mm 0.00 in0.0 mm